Time;durP1;ratioP1;P1;durP2;ratioP2;P2;SDS_P1;SDS_P2;PMS_P1;PMS_P2;Temp;Humidity;BMP_temperature;BMP_pressure;BME280_temperature;BME280_humidity;BME280_pressure;Samples;Min_cycle;Max_cycle;Signal;HPM_P1;HPM_P2
2023/10/26 00:01:36;;;;;;;48.40;22.70;;;;;;;;;;5117355;28;20467;-62
2023/10/26 00:04:02;;;;;;;51.30;22.38;;;;;;;;;;5099002;28;20071;-62
2023/10/26 00:06:28;;;;;;;47.33;21.08;;;;;;;;;;5099611;28;20467;-62
2023/10/26 00:08:54;;;;;;;41.05;21.05;;;;;;;;;;5099599;28;20050;-62
2023/10/26 00:11:21;;;;;;;50.28;22.75;;;;;;;;;;5117465;28;20043;-62
2023/10/26 00:13:47;;;;;;;55.92;24.30;;;;;;;;;;5095528;28;20070;-62
2023/10/26 00:16:13;;;;;;;50.47;22.88;;;;;;;;;;5097105;28;20052;-62
2023/10/26 00:18:39;;;;;;;48.03;22.38;;;;;;;;;;5097113;28;20035;-62
2023/10/26 00:21:05;;;;;;;51.92;21.88;;;;;;;;;;5096786;28;20101;-62
2023/10/26 00:23:31;;;;;;;46.95;22.20;;;;;;;;;;5096486;28;20043;-62
2023/10/26 00:25:57;;;;;;;50.97;22.80;;;;;;;;;;5097698;28;20123;-62
2023/10/26 00:28:23;;;;;;;45.50;20.55;;;;;;;;;;5096911;28;20048;-62
2023/10/26 00:30:49;;;;;;;46.88;22.05;;;;;;;;;;5096810;28;20071;-62
2023/10/26 00:33:15;;;;;;;46.53;22.73;;;;;;;;;;5095289;28;20488;-63
2023/10/26 00:35:45;;;;;;;50.60;22.45;;;;;;;;;;5096380;28;20484;-62
2023/10/26 00:38:13;;;;;;;53.08;22.70;;;;;;;;;;5096656;28;20047;-62
2023/10/26 00:40:40;;;;;;;52.35;22.42;;;;;;;;;;5096595;28;20051;-62
2023/10/26 00:43:06;;;;;;;35.60;20.60;;;;;;;;;;5095341;28;20054;-62
2023/10/26 00:45:37;;;;;;;56.53;22.80;;;;;;;;;;5096149;28;20040;-62
2023/10/26 00:48:04;;;;;;;;;;;9.10;99.90;;;;;;5096732;28;20042;-62
2023/10/26 00:50:30;;;;;;;36.53;19.67;;;;;;;;;;5095977;28;20032;-62
2023/10/26 00:52:57;;;;;;;44.67;21.92;;;;;;;;;;5095463;28;20040;-62
2023/10/26 00:55:25;;;;;;;42.42;21.08;;;;;;;;;;5096874;28;20044;-62
2023/10/26 00:57:51;;;;;;;52.42;22.58;;;;;;;;;;5095070;28;20040;-62
2023/10/26 01:00:17;;;;;;;43.00;21.30;;;;;;;;;;5096182;28;20047;-62
2023/10/26 01:02:43;;;;;;;41.85;22.08;;;;;;;;;;5095658;28;20040;-62
2023/10/26 01:05:09;;;;;;;47.75;21.75;;;;;;;;;;5095466;28;20055;-62
2023/10/26 01:07:36;;;;;;;36.33;20.33;;;;;;;;;;5095777;28;20476;-62
2023/10/26 01:10:02;;;;;;;54.33;24.42;;;;;;;;;;5071399;28;20044;-62
2023/10/26 01:12:28;;;;;;;40.97;22.23;;;;;;;;;;5075726;28;20036;-62
2023/10/26 01:14:54;;;;;;;55.47;23.70;;;;;;;;;;5093884;28;20395;-62
2023/10/26 01:17:20;;;;;;;44.95;22.50;;;;;;;;;;5095497;28;20194;-62
2023/10/26 01:19:48;;;;;;;47.60;22.02;;;;;;;;;;5095787;28;20082;-62
2023/10/26 01:22:14;;;;;;;47.90;22.63;;;;;;;;;;5078539;28;20043;-62
2023/10/26 01:24:40;;;;;;;45.08;21.38;;;;;;;;;;5095714;28;20040;-62
2023/10/26 01:27:06;;;;;;;50.97;23.23;;;;;;;;;;5077545;28;20089;-62
2023/10/26 01:29:32;;;;;;;51.35;22.92;;;;;;;;;;5077222;28;20040;-62
2023/10/26 01:31:59;;;;;;;48.67;21.45;;;;;;;;;;5096134;28;20042;-62
2023/10/26 01:34:25;;;;;;;51.97;22.05;;;;;;;;;;5096060;28;20044;-62
2023/10/26 01:36:51;;;;;;;40.40;21.00;;;;;;;;;;5077058;28;20475;-62
2023/10/26 01:39:17;;;;;;;55.13;23.20;;;;;;;;;;5078454;28;20132;-61
2023/10/26 01:41:44;;;;;;;53.63;22.30;;;;;;;;;;5095339;28;20417;-62
2023/10/26 01:44:10;;;;;;;49.25;23.65;;;;;;;;;;5095385;28;20100;-62
2023/10/26 01:46:38;;;;;;;48.05;21.90;;;;;;;;;;5095860;28;20122;-62
2023/10/26 01:49:05;;;;;;;50.90;22.65;;;;;;;;;;5095056;28;20035;-62
2023/10/26 01:51:42;;;;;;;43.35;21.15;;;;;;;;;;5061055;28;20048;-62
2023/10/26 01:54:10;;;;;;;51.92;23.30;;;;;;;;;;5095423;28;20174;-62
2023/10/26 01:56:36;;;;;;;50.03;23.85;;;;;;;;;;5095097;28;20047;-62
2023/10/26 01:59:02;;;;;;;52.30;24.40;;;;;;;;;;5095898;28;20036;-62
2023/10/26 02:01:28;;;;;;;55.10;23.13;;;;;;;;;;5093548;28;20498;-61
2023/10/26 02:03:54;;;;;;;52.67;25.30;;;;;;;;;;5076905;28;20079;-61
2023/10/26 02:06:20;;;;;;;51.08;24.23;;;;;;;;;;5099261;28;20104;-62
2023/10/26 02:08:46;;;;;;;49.20;24.30;;;;;;;;;;5115245;28;20082;-61
2023/10/26 02:11:13;;;;;;;57.08;25.55;;;;;;;;;;5127292;27;20088;-62
2023/10/26 02:13:40;;;;;;;61.65;25.85;;;;;;;;;;5117225;27;20437;-61
2023/10/26 02:16:06;;;;;;;55.13;24.88;;;;;;;;;;5136254;27;20081;-62
2023/10/26 02:18:32;;;;;;;66.72;26.35;;;;;;;;;;5135929;27;20039;-62
2023/10/26 02:21:01;;;;;;;62.30;26.85;;;;;;;;;;5093324;28;20036;-62
2023/10/26 02:23:28;;;;;;;67.93;27.63;;;;;;;;;;5097698;28;20032;-62
2023/10/26 02:25:54;;;;;;;63.20;27.20;;;;;;;;;;5114637;28;20464;-61
2023/10/26 02:28:20;;;;;;;62.65;27.20;;;;;;;;;;5114926;28;20046;-61
2023/10/26 02:30:46;;;;;;;75.82;27.90;;;;;;;;;;5114555;28;20467;-62
2023/10/26 02:33:12;;;;;;;70.47;29.52;;;;;;;;;;5115086;28;20050;-62
2023/10/26 02:35:39;;;;;;;75.75;31.00;;;;;;;;;;5114739;28;20047;-62
2023/10/26 02:38:05;;;;;;;68.68;29.30;;;;;;;;;;5115265;28;20364;-62
2023/10/26 02:40:32;;;;;;;79.60;30.65;;;;;;;;;;5114688;28;20042;-62
2023/10/26 02:42:59;;;;;;;81.57;30.75;;;;;;;;;;5114521;28;20035;-62
2023/10/26 02:45:25;;;;;;;74.78;30.55;;;;;;;;;;5114867;28;20040;-62
2023/10/26 02:47:51;;;;;;;76.50;31.23;;;;;;;;;;5114530;28;20082;-61
2023/10/26 02:50:17;;;;;;;78.25;30.08;;;;;;;;;;5114774;28;20051;-62
2023/10/26 02:52:43;;;;;;;74.70;30.38;;;;;;;;;;5096523;28;20058;-62
2023/10/26 02:55:11;;;;;;;77.50;30.52;;;;;;;;;;5114455;28;20100;-62
2023/10/26 02:57:37;;;;;;;78.32;32.35;;;;;;;;;;5114431;28;20040;-61
2023/10/26 03:00:05;;;;;;;76.43;30.35;;;;;;;;;;5096801;28;20046;-61
2023/10/26 03:02:31;;;;;;;79.25;32.05;;;;;;;;;;5113983;28;20451;-61
2023/10/26 03:04:58;;;;;;;90.22;31.67;;;;;;;;;;5114332;28;20051;-62
2023/10/26 03:07:24;;;;;;;87.57;32.38;;;;;;;;;;5096435;28;20118;-62
2023/10/26 03:09:50;;;;;;;85.88;31.88;;;;;;;;;;5096065;28;20040;-62
2023/10/26 03:12:17;;;;;;;92.80;32.63;;;;;;;;;;5122641;27;20072;-62
2023/10/26 03:14:43;;;;;;;81.85;30.67;;;;;;;;;;5135198;27;20138;-62
2023/10/26 03:17:10;;;;;;;83.22;31.63;;;;;;;;;;5134738;27;20047;-62
2023/10/26 03:19:36;;;;;;;87.80;33.15;;;;;;;;;;5115217;28;20522;-61
2023/10/26 03:22:02;;;;;;;86.18;32.20;;;;;;;;;;5116178;28;20035;-61
2023/10/26 03:24:28;;;;;;;91.05;33.17;;;;;;;;;;5134670;28;20031;-61
2023/10/26 03:26:54;;;;;;;88.60;33.53;;;;;;;;;;5134658;28;20039;-62
2023/10/26 03:29:21;;;;;;;95.72;35.33;;;;;;;;;;5134667;28;20127;-62
2023/10/26 03:31:47;;;;;;;92.72;33.30;;;;;;;;;;5134643;28;20035;-61
2023/10/26 03:34:13;;;;;;;87.25;33.78;;;;;;;;;;5134594;28;20042;-62
2023/10/26 03:36:39;;;;;;;87.97;32.28;;;;;;;;;;5135433;28;20035;-62
2023/10/26 03:39:05;;;;;;;93.32;31.70;;;;;;;;;;5117327;28;20039;-61
2023/10/26 03:41:31;;;;;;;93.25;32.33;;;;;;;;;;5135074;28;20124;-62
2023/10/26 03:43:57;;;;;;;101.05;34.45;;;;;;;;;;5134485;28;20467;-61
2023/10/26 03:46:26;;;;;;;95.93;32.75;;;;;;;;;;5116144;28;20087;-62
2023/10/26 03:48:52;;;;;;;95.18;33.00;;;;;;;;;;5134450;28;20078;-62
2023/10/26 03:51:20;;;;;;;75.10;30.02;;;;;;;;;;5116678;28;20047;-62
2023/10/26 03:53:46;;;;;;;114.55;35.63;;;;;;;;;;5115984;28;20487;-61
2023/10/26 03:56:12;;;;;;;102.03;34.65;;;;;;;;;;5115973;28;20092;-61
2023/10/26 03:58:41;;;;;;;120.28;36.63;;;;;;;;;;5134394;28;20039;-61
2023/10/26 04:01:07;;;;;;;75.03;30.83;;;;;;;;;;5134297;28;20047;-61
2023/10/26 04:03:35;;;;;;;69.70;29.00;;;;;;;;;;5114699;28;20494;-62
2023/10/26 04:06:01;;;;;;;143.48;35.72;;;;;;;;;;5112916;28;20487;-62
2023/10/26 04:08:30;;;;;;;149.70;36.58;;;;;;;;;;5094597;28;20047;-62
2023/10/26 04:10:56;;;;;;;100.40;31.48;;;;;;;;;;5106273;28;20047;-62
2023/10/26 04:13:22;;;;;;;158.38;37.17;;;;;;;;;;5116225;28;20505;-62
2023/10/26 04:15:50;;;;;;;326.33;41.40;;;;;;;;;;5134201;28;20126;-61
2023/10/26 04:18:16;;;;;;;687.42;64.75;;;;;;;;;;5128165;28;20365;-61
2023/10/26 04:20:42;;;;;;;513.95;47.63;;;;;;;;;;5095437;28;20055;-61
2023/10/26 04:23:08;;;;;;;516.67;52.08;;;;;;;;;;5095175;28;20074;-61
2023/10/26 04:25:34;;;;;;;503.20;48.25;;;;;;;;;;5116876;28;20063;-61
2023/10/26 04:28:00;;;;;;;499.10;45.67;;;;;;;;;;5115367;28;20488;-62
2023/10/26 04:30:26;;;;;;;740.60;62.00;;;;;;;;;;5116021;28;20126;-62
2023/10/26 04:32:53;;;;;;;609.47;51.05;;;;;;;;;;5117150;28;20123;-62
2023/10/26 04:35:19;;;;;;;562.10;51.40;;;;;;;;;;5117087;28;20043;-61
2023/10/26 04:37:45;;;;;;;704.15;61.10;;;;;;;;;;5116862;28;20437;-62
2023/10/26 04:40:11;;;;;;;754.10;63.25;;;;;;;;;;5086198;28;20100;-61
2023/10/26 04:42:37;;;;;;;520.03;48.60;;;;;;;;;;5096495;28;20087;-61
2023/10/26 04:45:03;;;;;;;539.33;51.10;;;;;;;;;;5096500;28;20044;-62
2023/10/26 04:47:29;;;;;;;687.13;60.70;;;;;;;;;;5096436;28;20040;-62
2023/10/26 04:49:55;;;;;;;366.65;40.58;;;;;;;;;;5096486;28;20102;-61
2023/10/26 04:52:22;;;;;;;706.83;58.60;;;;;;;;;;5096023;28;20485;-61
2023/10/26 04:54:48;;;;;;;725.42;59.70;;;;;;;;;;5096917;28;20043;-61
2023/10/26 04:57:14;;;;;;;750.40;61.10;;;;;;;;;;5078135;28;20046;-61
2023/10/26 04:59:40;;;;;;;698.47;59.00;;;;;;;;;;5096754;28;20032;-61
2023/10/26 05:02:06;;;;;;;480.42;45.42;;;;;;;;;;5096129;28;20040;-61
2023/10/26 05:04:32;;;;;;;711.45;60.45;;;;;;;;;;5096107;28;20055;-61
2023/10/26 05:06:58;;;;;;;734.08;61.65;;;;;;;;;;5096063;28;20058;-62
2023/10/26 05:09:24;;;;;;;536.30;48.75;;;;;;;;;;5095978;28;20040;-62
2023/10/26 05:11:50;;;;;;;673.75;56.10;;;;;;;;;;5112365;28;20043;-61
2023/10/26 05:14:16;;;;;;;563.78;49.90;;;;;;;;;;5116522;28;20077;-61
2023/10/26 05:16:42;;;;;;;707.92;57.53;;;;;;;;;;5116853;28;20364;-62
2023/10/26 05:19:08;;;;;;;483.83;44.80;;;;;;;;;;5098802;28;20455;-62
2023/10/26 05:21:34;;;;;;;577.38;47.20;;;;;;;;;;5116707;28;20035;-61
2023/10/26 05:24:00;;;;;;;133.77;28.05;;;;;;;;;;5116252;28;20432;-61
2023/10/26 05:26:26;;;;;;;286.88;33.30;;;;;;;;;;5116099;28;20083;-62
2023/10/26 05:28:52;;;;;;;137.25;27.90;;;;;;;;;;5116081;28;20039;-61
2023/10/26 05:31:18;;;;;;;541.47;49.33;;;;;;;;;;5114801;28;20532;-62
2023/10/26 05:33:46;;;;;;;646.17;54.33;;;;;;;;;;5115586;28;20040;-61
2023/10/26 05:36:12;;;;;;;303.60;38.08;;;;;;;;;;5097386;28;20531;-61
2023/10/26 05:38:40;;;;;;;167.68;28.98;;;;;;;;;;5115855;28;20039;-61
2023/10/26 05:41:07;;;;;;;109.07;26.67;;;;;;;;;;5115766;28;20046;-61
2023/10/26 05:43:33;;;;;;;363.13;39.08;;;;;;;;;;5115720;28;20123;-60
2023/10/26 05:46:05;;;;;;;485.95;48.40;;;;;;;;;;5098019;28;20079;-60
2023/10/26 05:48:32;;;;;;;401.42;42.58;;;;;;;;;;5115645;28;20134;-60
2023/10/26 05:51:01;;;;;;;108.28;27.80;;;;;;;;;;5115865;28;20039;-61
2023/10/26 05:53:27;;;;;;;96.93;25.58;;;;;;;;;;5115514;28;20041;-61
2023/10/26 05:55:57;;;;;;;129.18;28.63;;;;;;;;;;5115804;28;20043;-60
2023/10/26 05:58:23;;;;;;;255.57;36.70;;;;;;;;;;5116074;28;20193;-61
2023/10/26 06:00:49;;;;;;;48.00;23.10;;;;;;;;;;5103719;28;20040;-61
2023/10/26 06:03:15;;;;;;;245.02;35.72;;;;;;;;;;5094924;28;20044;-60
2023/10/26 06:05:41;;;;;;;121.53;28.38;;;;;;;;;;5094948;28;20074;-60
2023/10/26 06:08:07;;;;;;;86.38;27.05;;;;;;;;;;5095996;28;20127;-61
2023/10/26 06:10:33;;;;;;;96.93;27.83;;;;;;;;;;5096243;28;20123;-62
2023/10/26 06:12:59;;;;;;;375.30;42.60;;;;;;;;;;5114351;28;20498;-61
2023/10/26 06:15:26;;;;;;;357.15;44.20;;;;;;;;;;5096890;28;20047;-60
2023/10/26 06:17:52;;;;;;;432.67;45.65;;;;;;;;;;5115047;28;20119;-61
2023/10/26 06:20:18;;;;;;;56.60;24.25;;;;;;;;;;5115694;28;20148;-61
2023/10/26 06:22:44;;;;;;;83.90;25.65;;;;;;;;;;5115219;28;20039;-61
2023/10/26 06:25:10;;;;;;;349.27;42.25;;;;;;;;;;5097070;28;20083;-61
2023/10/26 06:27:36;;;;;;;465.95;47.80;;;;;;;;;;5115511;28;20079;-60
2023/10/26 06:30:03;;;;;;;418.55;44.60;;;;;;;;;;5114873;28;20552;-61
2023/10/26 06:32:29;;;;;;;398.42;44.72;;;;;;;;;;5097476;28;20375;-61
2023/10/26 06:34:56;;;;;;;341.85;40.35;;;;;;;;;;5096215;28;20387;-61
2023/10/26 06:37:23;;;;;;;261.42;37.00;;;;;;;;;;5114595;28;20054;-61
2023/10/26 06:39:49;;;;;;;466.90;51.05;;;;;;;;;;5102116;28;20043;-61
2023/10/26 06:42:15;;;;;;;312.88;40.40;;;;;;;;;;5096290;28;20040;-61
2023/10/26 06:44:41;;;;;;;150.43;32.03;;;;;;;;;;5115185;28;20122;-60
2023/10/26 06:47:07;;;;;;;424.35;46.17;;;;;;;;;;5113729;28;20549;-60
2023/10/26 06:49:33;;;;;;;370.10;41.17;;;;;;;;;;5114587;28;20035;-60
2023/10/26 06:51:59;;;;;;;440.77;47.35;;;;;;;;;;5114553;28;20039;-60
2023/10/26 06:54:27;;;;;;;326.30;40.70;;;;;;;;;;5096396;28;20104;-60
2023/10/26 06:56:55;;;;;;;362.92;40.70;;;;;;;;;;5114462;28;20047;-60
2023/10/26 06:59:21;;;;;;;535.35;50.95;;;;;;;;;;5096521;28;20063;-60
2023/10/26 07:01:47;;;;;;;473.05;46.03;;;;;;;;;;5112824;28;20472;-60
2023/10/26 07:04:13;;;;;;;117.30;26.88;;;;;;;;;;5097039;28;20043;-61
2023/10/26 07:06:39;;;;;;;178.50;31.08;;;;;;;;;;5114011;28;20562;-60
2023/10/26 07:09:06;;;;;;;319.95;44.60;;;;;;;;;;5114560;28;20074;-61
2023/10/26 07:11:32;;;;;;;248.00;38.40;;;;;;;;;;5113285;28;20071;-60
2023/10/26 07:13:58;;;;;;;270.00;35.20;;;;;;;;;;5113668;28;20051;-61
2023/10/26 07:16:24;;;;;;;266.67;35.92;;;;;;;;;;5114271;28;20039;-60
2023/10/26 07:18:50;;;;;;;475.77;49.80;;;;;;;;;;5096829;28;20082;-61
2023/10/26 07:21:16;;;;;;;524.00;56.22;;;;;;;;;;5114765;28;20039;-60
2023/10/26 07:23:42;;;;;;;451.00;48.65;;;;;;;;;;5114071;28;20096;-61
2023/10/26 07:26:08;;;;;;;235.10;34.25;;;;;;;;;;5097032;28;20043;-61
2023/10/26 07:28:34;;;;;;;131.90;29.75;;;;;;;;;;5114428;28;20047;-61
2023/10/26 07:31:00;;;;;;;351.42;42.22;;;;;;;;;;5114114;28;20040;-61
2023/10/26 07:33:26;;;;;;;171.30;31.17;;;;;;;;;;5114085;28;20168;-61
2023/10/26 07:35:55;;;;;;;65.38;27.63;;;;;;;;;;5113628;28;20092;-61
2023/10/26 07:38:24;;;;;;;319.48;40.65;;;;;;;;;;5102318;28;20105;-60
2023/10/26 07:40:51;;;;;;;585.30;54.50;;;;;;;;;;5116492;28;20139;-60
2023/10/26 07:43:17;;;;;;;582.83;53.10;;;;;;;;;;5116063;28;20043;-60
2023/10/26 07:45:43;;;;;;;99.22;29.08;;;;;;;;;;5134148;28;20035;-61
2023/10/26 07:48:09;;;;;;;206.25;31.15;;;;;;;;;;5121025;28;20097;-61
2023/10/26 07:50:35;;;;;;;229.85;35.40;;;;;;;;;;5111488;28;20131;-61
2023/10/26 07:53:01;;;;;;;549.97;54.63;;;;;;;;;;5114418;28;20075;-61
2023/10/26 07:55:27;;;;;;;437.13;47.42;;;;;;;;;;5113334;28;20123;-61
2023/10/26 07:57:54;;;;;;;79.57;29.02;;;;;;;;;;5096645;28;20554;-61
2023/10/26 08:00:20;;;;;;;256.90;35.53;;;;;;;;;;5117670;28;20498;-61
2023/10/26 08:02:46;;;;;;;285.95;38.20;;;;;;;;;;5117742;28;20035;-61
2023/10/26 08:05:15;;;;;;;120.30;29.85;;;;;;;;;;5117374;28;20035;-61
2023/10/26 08:07:41;;;;;;;287.25;37.00;;;;;;;;;;5104543;27;20039;-61
2023/10/26 08:10:09;;;;;;;100.70;33.88;;;;;;;;;;5120332;27;20058;-61
2023/10/26 08:12:35;;;;;;;407.15;46.05;;;;;;;;;;5119940;27;20051;-61
2023/10/26 08:15:02;;;;;;;283.80;41.05;;;;;;;;;;5138583;27;20108;-61
2023/10/26 08:17:28;;;;;;;270.52;39.30;;;;;;;;;;5137903;27;20043;-61
2023/10/26 08:19:55;;;;;;;106.75;30.20;;;;;;;;;;5119899;27;20126;-61
2023/10/26 08:22:21;;;;;;;479.75;70.47;;;;;;;;;;5119699;27;20475;-61
2023/10/26 08:24:48;;;;;;;519.38;54.88;;;;;;;;;;5116222;27;20108;-61
2023/10/26 08:27:14;;;;;;;445.35;99.97;;;;;;;;;;5099094;28;20467;-61
2023/10/26 08:29:40;;;;;;;750.80;129.77;;;;;;;;;;5098680;28;20040;-61
2023/10/26 08:32:07;;;;;;;136.35;52.58;;;;;;;;;;5116399;28;20067;-61
2023/10/26 08:34:33;;;;;;;123.85;34.28;;;;;;;;;;5112854;27;20047;-61
2023/10/26 08:37:00;;;;;;;131.18;33.42;;;;;;;;;;5114664;28;20597;-60
2023/10/26 08:39:26;;;;;;;106.93;30.67;;;;;;;;;;5115708;28;20126;-61
2023/10/26 08:41:58;;;;;;;99.00;30.05;;;;;;;;;;5104771;28;20122;-61
2023/10/26 08:44:26;;;;;;;173.57;34.95;;;;;;;;;;5116100;28;20039;-61
2023/10/26 08:46:53;;;;;;;72.05;29.25;;;;;;;;;;5115818;28;20058;-61
2023/10/26 08:49:21;;;;;;;199.48;41.38;;;;;;;;;;5113879;28;20040;-61
2023/10/26 08:51:47;;;;;;;208.18;44.97;;;;;;;;;;5110091;27;20360;-61
2023/10/26 08:54:13;;;;;;;320.77;58.83;;;;;;;;;;5115171;28;20046;-60
2023/10/26 08:56:39;;;;;;;111.63;51.15;;;;;;;;;;5097986;28;20031;-61
2023/10/26 08:59:05;;;;;;;310.08;55.78;;;;;;;;;;5115302;28;20036;-61
2023/10/26 09:01:31;;;;;;;76.80;32.08;;;;;;;;;;5114784;28;20048;-61
2023/10/26 09:03:57;;;;;;;190.32;44.15;;;;;;;;;;5097333;28;20135;-61
2023/10/26 09:06:23;;;;;;;94.55;35.05;;;;;;;;;;5097599;28;20039;-61
2023/10/26 09:09:00;;;;;;;196.20;44.30;;;;;;;;;;5114871;28;20043;-61
2023/10/26 09:11:26;;;;;;;122.28;35.17;;;;;;;;;;5096590;28;20097;-61
2023/10/26 09:13:52;;;;;;;174.50;41.78;;;;;;;;;;5114754;27;20063;-60
2023/10/26 09:16:19;;;;;;;122.70;42.25;;;;;;;;;;5115638;28;20043;-61
2023/10/26 09:18:51;;;;;;;123.47;36.25;;;;;;;;;;5115111;28;20039;-61
2023/10/26 09:21:17;;;;;;;115.32;40.67;;;;;;;;;;5114585;28;20052;-60
2023/10/26 09:23:45;;;;;;;80.53;34.75;;;;;;;;;;5115610;28;20074;-61
2023/10/26 09:26:11;;;;;;;89.40;33.30;;;;;;;;;;5113520;28;20031;-62
2023/10/26 09:28:50;;;;;;;75.18;33.45;;;;;;;;;;5134177;27;20084;-63
2023/10/26 09:31:17;;;;;;;123.00;54.33;;;;;;;;;;5134019;27;20051;-63
2023/10/26 09:33:43;;;;;;;88.32;35.55;;;;;;;;;;5112761;28;20047;-63
2023/10/26 09:36:17;;;;;;;65.15;32.15;;;;;;;;;;5106778;28;20093;-63
2023/10/26 09:38:43;;;;;;;70.28;31.90;;;;;;;;;;5114004;28;20164;-62
2023/10/26 09:41:11;;;;;;;61.47;30.73;;;;;;;;;;5115865;28;20039;-63
2023/10/26 09:43:40;;;;;;;60.83;30.38;;;;;;;;;;5114350;28;20372;-61
2023/10/26 09:46:10;;;;;;;65.50;31.13;;;;;;;;;;5113547;28;20169;-61
2023/10/26 09:48:36;;;;;;;60.03;29.53;;;;;;;;;;5095116;28;20043;-62
2023/10/26 09:51:06;;;;;;;53.17;28.33;;;;;;;;;;5095685;28;20035;-62
2023/10/26 09:53:33;;;;;;;56.75;29.15;;;;;;;;;;5096941;28;20378;-62
2023/10/26 09:56:01;;;;;;;56.35;30.13;;;;;;;;;;5116140;28;20039;-61
2023/10/26 09:58:31;;;;;;;54.78;28.80;;;;;;;;;;5097225;28;20043;-61
2023/10/26 10:00:57;;;;;;;50.97;27.42;;;;;;;;;;5098066;28;20050;-62
2023/10/26 10:03:23;;;;;;;53.40;28.75;;;;;;;;;;5097217;28;20039;-61
2023/10/26 10:05:49;;;;;;;184.10;77.82;;;;;;;;;;5114799;28;20498;-61
2023/10/26 10:08:35;;;;;;;56.20;29.23;;;;;;;;;;5098198;28;20049;-61
2023/10/26 10:11:19;;;;;;;55.40;30.25;;;;;;;;;;5115183;28;20047;-61
2023/10/26 10:13:45;;;;;;;47.05;27.13;;;;;;;;;;5115075;28;20058;-61
2023/10/26 10:16:36;;;;;;;48.15;28.48;;;10.90;99.90;;;;;;5114465;28;20089;-62
2023/10/26 10:19:20;;;;;;;43.53;25.50;;;;;;;;;;5114945;28;20036;-62
2023/10/26 10:21:48;;;;;;;48.38;27.35;;;;;;;;;;5113201;28;20048;-62
2023/10/26 10:24:44;;;;;;;43.47;25.50;;;10.60;99.90;;;;;;5114501;28;20116;-61
2023/10/26 10:27:15;;;;;;;38.83;24.52;;;;;;;;;;5114931;28;20054;-62
2023/10/26 10:29:42;;;;;;;37.60;23.27;;;;;;;;;;5096610;28;20083;-61
2023/10/26 10:32:10;;;;;;;37.90;24.20;;;;;;;;;;5114875;28;20119;-61
2023/10/26 10:34:47;;;;;;;39.42;24.38;;;;;;;;;;5096569;28;20093;-61
2023/10/26 10:37:22;;;;;;;40.45;24.20;;;;;;;;;;5114823;28;20103;-62
2023/10/26 10:40:13;;;;;;;39.50;25.05;;;11.30;99.90;;;;;;5095006;28;20040;-61
2023/10/26 10:42:48;;;;;;;;;;;11.40;99.90;;;;;;5094623;28;20032;-61
2023/10/26 10:45:14;;;;;;;40.15;23.48;;;;;;;;;;5094325;28;19916;-62
2023/10/26 10:47:41;;;;;;;40.20;23.90;;;;;;;;;;5094781;28;20036;-62
2023/10/26 10:50:14;;;;;;;36.72;24.20;;;;;;;;;;5080646;28;20046;-62
2023/10/26 10:52:41;;;;;;;39.88;27.13;;;;;;;;;;5114313;28;20494;-62
2023/10/26 10:55:07;;;;;;;35.70;23.58;;;;;;;;;;5114473;28;20051;-62
2023/10/26 10:57:33;;;;;;;36.85;22.88;;;;;;;;;;5113257;28;20043;-62
2023/10/26 10:59:59;;;;;;;36.35;24.35;;;;;;;;;;5113958;28;20471;-62
2023/10/26 11:02:25;;;;;;;35.75;23.02;;;;;;;;;;5112962;28;20042;-62
2023/10/26 11:04:58;;;;;;;38.08;23.13;;;;;;;;;;5113419;28;20036;-62
2023/10/26 11:07:27;;;;;;;35.75;23.58;;;;;;;;;;5109214;28;20036;-62
2023/10/26 11:09:57;;;;;;;32.00;21.03;;;;;;;;;;5080434;28;20051;-62
2023/10/26 11:12:24;;;;;;;35.45;20.42;;;;;;;;;;5113333;28;20042;-62
2023/10/26 11:14:51;;;;;;;31.65;20.88;;;;;;;;;;5113180;28;20054;-62
2023/10/26 11:17:20;;;;;;;28.10;20.98;;;;;;;;;;5110793;28;20047;-62
2023/10/26 11:19:47;;;;;;;30.33;20.30;;;;;;;;;;5112873;28;20472;-62
2023/10/26 11:22:15;;;;;;;26.48;18.38;;;;;;;;;;5112212;28;20044;-62
2023/10/26 11:24:42;;;;;;;24.27;17.50;;;;;;;;;;5107010;28;20104;-62
2023/10/26 11:27:12;;;;;;;30.90;18.85;;;;;;;;;;5112104;28;20089;-62
2023/10/26 11:29:40;;;;;;;26.30;18.77;;;;;;;;;;5112286;28;20123;-62
2023/10/26 11:32:18;;;;;;;28.00;18.65;;;;;;;;;;5094429;28;20112;-63
2023/10/26 11:35:16;;;;;;;28.20;18.83;;;11.90;99.90;;;;;;5116367;28;20067;-62
2023/10/26 11:37:49;;;;;;;26.55;17.40;;;;;;;;;;5096662;28;20122;-62
2023/10/26 11:40:16;;;;;;;26.17;17.85;;;;;;;;;;5109028;28;20043;-62
2023/10/26 11:42:56;;;;;;;27.30;17.65;;;;;;;;;;5115714;28;20035;-62
2023/10/26 11:45:25;;;;;;;29.63;19.02;;;;;;;;;;5114008;28;20375;-63
2023/10/26 11:47:52;;;;;;;28.35;17.65;;;;;;;;;;5098259;28;20055;-62
2023/10/26 11:50:25;;;;;;;30.30;19.17;;;;;;;;;;5098276;28;20043;-62
2023/10/26 11:52:52;;;;;;;26.20;18.05;;;;;;;;;;5115783;28;20059;-62
2023/10/26 11:55:19;;;;;;;29.85;18.63;;;;;;;;;;5116733;27;20371;-62
2023/10/26 11:57:46;;;;;;;28.45;17.60;;;;;;;;;;5111608;27;20059;-62
2023/10/26 12:00:12;;;;;;;27.98;18.83;;;;;;;;;;5113441;28;20370;-62
2023/10/26 12:02:39;;;;;;;27.48;19.08;;;;;;;;;;5097406;27;20372;-62
2023/10/26 12:05:05;;;;;;;29.88;19.58;;;;;;;;;;5098066;28;20045;-62
2023/10/26 12:07:31;;;;;;;29.58;19.40;;;;;;;;;;5117230;28;20044;-62
2023/10/26 12:09:57;;;;;;;29.83;20.35;;;;;;;;;;5110281;28;20428;-62
2023/10/26 12:12:25;;;;;;;30.08;19.42;;;;;;;;;;5113747;28;20067;-62
2023/10/26 12:14:51;;;;;;;34.38;20.67;;;;;;;;;;5114687;27;20087;-62
2023/10/26 12:17:17;;;;;;;31.17;20.05;;;;;;;;;;5116243;27;20042;-62
2023/10/26 12:19:43;;;;;;;30.17;20.08;;;;;;;;;;5116458;28;20415;-62
2023/10/26 12:22:09;;;;;;;27.50;18.77;;;;;;;;;;5113938;28;20040;-62
2023/10/26 12:24:36;;;;;;;24.83;15.80;;;;;;;;;;5112125;27;20032;-63
2023/10/26 12:27:02;;;;;;;22.45;14.15;;;;;;;;;;5114980;28;20096;-63
2023/10/26 12:29:29;;;;;;;19.65;13.60;;;;;;;;;;5115923;28;20048;-63
2023/10/26 12:31:55;;;;;;;18.95;14.57;;;;;;;;;;5096781;28;20043;-63
2023/10/26 12:34:21;;;;;;;20.45;14.15;;;;;;;;;;5115015;27;20126;-64
2023/10/26 12:36:47;;;;;;;22.35;14.70;;;;;;;;;;5115826;28;20043;-63
2023/10/26 12:39:13;;;;;;;22.17;14.05;;;;;;;;;;5103844;28;20036;-62
2023/10/26 12:41:39;;;;;;;21.25;14.48;;;;;;;;;;5115249;27;20043;-63
2023/10/26 12:44:05;;;;;;;18.60;12.90;;;;;;;;;;5113837;28;20039;-63
2023/10/26 12:46:32;;;;;;;19.35;13.95;;;;;;;;;;5112779;28;20044;-65
2023/10/26 12:49:01;;;;;;;16.63;12.43;;;;;;;;;;5112915;28;20140;-62
2023/10/26 12:51:27;;;;;;;19.67;11.73;;;;;;;;;;5096565;28;20123;-62
2023/10/26 12:53:53;;;;;;;18.48;12.82;;;;;;;;;;5112765;27;20189;-62
2023/10/26 12:56:19;;;;;;;18.65;12.82;;;;;;;;;;5097064;27;20063;-62
2023/10/26 12:58:45;;;;;;;16.13;11.77;;;;;;;;;;5096990;28;20051;-62
2023/10/26 13:01:11;;;;;;;18.13;12.52;;;;;;;;;;5096000;28;20418;-63
2023/10/26 13:03:37;;;;;;;21.52;14.02;;;;;;;;;;5113193;28;20480;-62
2023/10/26 13:06:03;;;;;;;19.38;13.48;;;;;;;;;;5112547;27;20063;-62
2023/10/26 13:08:29;;;;;;;15.80;11.73;;;;;;;;;;5113628;27;20119;-63
2023/10/26 13:10:55;;;;;;;16.00;11.18;;;;;;;;;;5095564;28;20047;-62
2023/10/26 13:13:21;;;;;;;17.25;11.48;;;;;;;;;;5114596;27;20063;-63
2023/10/26 13:15:47;;;;;;;17.17;12.63;;;;;;;;;;5113936;28;20075;-63
2023/10/26 13:18:13;;;;;;;16.42;11.88;;;;;;;;;;5114230;28;20078;-62
2023/10/26 13:20:40;;;;;;;21.77;13.48;;;;;;;;;;5097220;28;20099;-63
2023/10/26 13:23:07;;;;;;;18.52;11.98;;;;;;;;;;5096143;28;20047;-63
2023/10/26 13:25:33;;;;;;;13.82;10.00;;;;;;;;;;5096745;28;20080;-63
2023/10/26 13:28:00;;;;;;;17.10;10.77;;;;;;;;;;5099306;28;20040;-63
2023/10/26 13:30:27;;;;;;;15.77;9.70;;;;;;;;;;5114437;28;20043;-63
2023/10/26 13:32:53;;;;;;;20.08;12.18;;;;;;;;;;5114183;27;20082;-63
2023/10/26 13:35:19;;;;;;;18.98;13.10;;;;;;;;;;5096655;28;20543;-63
2023/10/26 13:37:46;;;;;;;18.13;12.82;;;;;;;;;;5098005;27;20215;-62
2023/10/26 13:40:13;;;;;;;19.75;13.30;;;;;;;;;;5113641;27;20071;-63
2023/10/26 13:42:39;;;;;;;17.98;12.93;;;;;;;;;;5114024;28;20173;-63
2023/10/26 13:45:05;;;;;;;18.10;12.48;;;;;;;;;;5112985;27;20092;-63
2023/10/26 13:47:31;;;;;;;26.25;13.43;;;;;;;;;;5114664;28;20047;-63
2023/10/26 13:49:58;;;;;;;20.80;12.02;;;;;;;;;;5113727;28;20047;-63
2023/10/26 13:52:25;;;;;;;19.05;11.85;;;;;;;;;;5114102;28;20035;-63
2023/10/26 13:54:51;;;;;;;19.60;12.05;;;;;;;;;;5085572;28;20104;-62
2023/10/26 13:57:17;;;;;;;16.70;12.40;;;;;;;;;;5111129;28;20047;-64
2023/10/26 13:59:43;;;;;;;19.90;12.65;;;;;;;;;;5113376;28;20043;-63
2023/10/26 14:02:09;;;;;;;18.80;12.63;;;;;;;;;;5113467;28;20480;-63
2023/10/26 14:04:38;;;;;;;19.85;13.13;;;;;;;;;;5106297;28;20462;-63
2023/10/26 14:07:04;;;;;;;20.80;13.07;;;;;;;;;;5113804;28;20047;-63
2023/10/26 14:09:37;;;;;;;20.23;13.38;;;;;;;;;;5113155;28;20480;-63
2023/10/26 14:12:04;;;;;;;24.98;15.55;;;;;;;;;;5094912;28;20086;-64